sensor_id;sensor_type;location;lat;lon;timestamp;temperature;humidity
65692;DHT22;52411;52.716;6.696;2024-02-21T00:00:55;9.60;99.90
65692;DHT22;52411;52.716;6.696;2024-02-21T00:03:21;9.60;99.90
65692;DHT22;52411;52.716;6.696;2024-02-21T00:05:46;9.60;99.90
65692;DHT22;52411;52.716;6.696;2024-02-21T00:08:12;9.60;99.90
65692;DHT22;52411;52.716;6.696;2024-02-21T00:10:38;9.60;99.90
65692;DHT22;52411;52.716;6.696;2024-02-21T00:13:03;9.60;99.90
65692;DHT22;52411;52.716;6.696;2024-02-21T00:15:29;9.70;99.90
65692;DHT22;52411;52.716;6.696;2024-02-21T00:17:54;9.70;99.90
65692;DHT22;52411;52.716;6.696;2024-02-21T00:20:20;9.70;99.90
65692;DHT22;52411;52.716;6.696;2024-02-21T00:22:46;9.70;99.90
65692;DHT22;52411;52.716;6.696;2024-02-21T00:25:12;9.60;99.90
65692;DHT22;52411;52.716;6.696;2024-02-21T00:27:38;9.70;99.90
65692;DHT22;52411;52.716;6.696;2024-02-21T00:30:04;9.70;99.90
65692;DHT22;52411;52.716;6.696;2024-02-21T00:32:30;9.70;99.90
65692;DHT22;52411;52.716;6.696;2024-02-21T00:34:57;9.70;99.90
65692;DHT22;52411;52.716;6.696;2024-02-21T00:37:22;9.70;99.90
65692;DHT22;52411;52.716;6.696;2024-02-21T00:39:48;9.60;99.90
65692;DHT22;52411;52.716;6.696;2024-02-21T00:42:14;9.70;99.90
65692;DHT22;52411;52.716;6.696;2024-02-21T00:44:39;9.60;99.90
65692;DHT22;52411;52.716;6.696;2024-02-21T00:47:05;9.60;99.90
65692;DHT22;52411;52.716;6.696;2024-02-21T00:49:30;9.60;99.90
65692;DHT22;52411;52.716;6.696;2024-02-21T00:51:56;9.70;99.90
65692;DHT22;52411;52.716;6.696;2024-02-21T00:54:22;9.70;99.90
65692;DHT22;52411;52.716;6.696;2024-02-21T00:56:48;9.70;99.90
65692;DHT22;52411;52.716;6.696;2024-02-21T00:59:13;9.70;99.90
65692;DHT22;52411;52.716;6.696;2024-02-21T01:01:39;9.60;99.90
65692;DHT22;52411;52.716;6.696;2024-02-21T01:04:08;9.60;99.90
65692;DHT22;52411;52.716;6.696;2024-02-21T01:06:34;9.60;99.90
65692;DHT22;52411;52.716;6.696;2024-02-21T01:09:00;9.60;99.90
65692;DHT22;52411;52.716;6.696;2024-02-21T01:11:25;9.60;99.90
65692;DHT22;52411;52.716;6.696;2024-02-21T01:13:51;9.60;99.90
65692;DHT22;52411;52.716;6.696;2024-02-21T01:16:16;9.60;99.90
65692;DHT22;52411;52.716;6.696;2024-02-21T01:18:42;9.60;99.90
65692;DHT22;52411;52.716;6.696;2024-02-21T01:21:08;9.60;99.90
65692;DHT22;52411;52.716;6.696;2024-02-21T01:23:35;9.60;99.90
65692;DHT22;52411;52.716;6.696;2024-02-21T01:26:01;9.60;99.90
65692;DHT22;52411;52.716;6.696;2024-02-21T01:28:27;9.50;99.90
65692;DHT22;52411;52.716;6.696;2024-02-21T01:30:53;9.50;99.90
65692;DHT22;52411;52.716;6.696;2024-02-21T01:33:18;9.50;99.90
65692;DHT22;52411;52.716;6.696;2024-02-21T01:35:44;9.50;99.90
65692;DHT22;52411;52.716;6.696;2024-02-21T01:38:12;9.50;99.90
65692;DHT22;52411;52.716;6.696;2024-02-21T01:40:37;9.50;99.90
65692;DHT22;52411;52.716;6.696;2024-02-21T01:43:03;9.60;99.90
65692;DHT22;52411;52.716;6.696;2024-02-21T01:45:28;9.60;99.90
65692;DHT22;52411;52.716;6.696;2024-02-21T01:47:54;9.60;99.90
65692;DHT22;52411;52.716;6.696;2024-02-21T01:50:21;9.60;99.90
65692;DHT22;52411;52.716;6.696;2024-02-21T01:52:49;9.60;99.90
65692;DHT22;52411;52.716;6.696;2024-02-21T01:55:16;9.60;99.90
65692;DHT22;52411;52.716;6.696;2024-02-21T01:57:43;9.60;99.90
65692;DHT22;52411;52.716;6.696;2024-02-21T02:00:11;9.60;99.90
65692;DHT22;52411;52.716;6.696;2024-02-21T02:02:38;9.60;99.90
65692;DHT22;52411;52.716;6.696;2024-02-21T02:05:04;9.60;99.90
65692;DHT22;52411;52.716;6.696;2024-02-21T02:07:31;9.60;99.90
65692;DHT22;52411;52.716;6.696;2024-02-21T02:09:57;9.70;99.90
65692;DHT22;52411;52.716;6.696;2024-02-21T02:12:23;9.70;99.90
65692;DHT22;52411;52.716;6.696;2024-02-21T02:14:59;9.70;99.90
65692;DHT22;52411;52.716;6.696;2024-02-21T02:17:25;9.70;99.90
65692;DHT22;52411;52.716;6.696;2024-02-21T02:19:50;9.70;99.90
65692;DHT22;52411;52.716;6.696;2024-02-21T02:22:22;9.70;99.90
65692;DHT22;52411;52.716;6.696;2024-02-21T02:24:48;9.70;99.90
65692;DHT22;52411;52.716;6.696;2024-02-21T02:27:14;9.70;99.90
65692;DHT22;52411;52.716;6.696;2024-02-21T02:29:39;9.70;99.90
65692;DHT22;52411;52.716;6.696;2024-02-21T02:32:05;9.60;99.90
65692;DHT22;52411;52.716;6.696;2024-02-21T02:34:31;9.60;99.90
65692;DHT22;52411;52.716;6.696;2024-02-21T02:36:56;9.50;99.90
65692;DHT22;52411;52.716;6.696;2024-02-21T02:39:22;9.50;99.90
65692;DHT22;52411;52.716;6.696;2024-02-21T02:41:47;9.50;99.90
65692;DHT22;52411;52.716;6.696;2024-02-21T02:44:13;9.50;99.90
65692;DHT22;52411;52.716;6.696;2024-02-21T02:46:40;9.40;99.90
65692;DHT22;52411;52.716;6.696;2024-02-21T02:49:06;9.50;99.90
65692;DHT22;52411;52.716;6.696;2024-02-21T02:51:32;9.40;99.90
65692;DHT22;52411;52.716;6.696;2024-02-21T02:53:58;9.40;99.90
65692;DHT22;52411;52.716;6.696;2024-02-21T02:56:23;9.40;99.90
65692;DHT22;52411;52.716;6.696;2024-02-21T02:58:49;9.30;99.90
65692;DHT22;52411;52.716;6.696;2024-02-21T03:01:14;9.30;99.90
65692;DHT22;52411;52.716;6.696;2024-02-21T03:03:40;9.30;99.90
65692;DHT22;52411;52.716;6.696;2024-02-21T03:06:06;9.30;99.90
65692;DHT22;52411;52.716;6.696;2024-02-21T03:08:31;9.20;99.90
65692;DHT22;52411;52.716;6.696;2024-02-21T03:10:58;9.20;99.90
65692;DHT22;52411;52.716;6.696;2024-02-21T03:13:25;9.20;99.90
65692;DHT22;52411;52.716;6.696;2024-02-21T03:15:51;9.20;99.90
65692;DHT22;52411;52.716;6.696;2024-02-21T03:18:16;9.10;99.90
65692;DHT22;52411;52.716;6.696;2024-02-21T03:20:42;9.20;99.90
65692;DHT22;52411;52.716;6.696;2024-02-21T03:23:07;9.10;99.90
65692;DHT22;52411;52.716;6.696;2024-02-21T03:25:33;9.20;99.90
65692;DHT22;52411;52.716;6.696;2024-02-21T03:27:58;9.10;99.90
65692;DHT22;52411;52.716;6.696;2024-02-21T03:30:24;9.10;99.90
65692;DHT22;52411;52.716;6.696;2024-02-21T03:32:49;9.10;99.90
65692;DHT22;52411;52.716;6.696;2024-02-21T03:35:15;9.10;99.90
65692;DHT22;52411;52.716;6.696;2024-02-21T03:37:41;9.10;99.90
65692;DHT22;52411;52.716;6.696;2024-02-21T03:40:08;9.10;99.90
65692;DHT22;52411;52.716;6.696;2024-02-21T03:42:34;9.10;99.90
65692;DHT22;52411;52.716;6.696;2024-02-21T03:44:59;9.10;99.90
65692;DHT22;52411;52.716;6.696;2024-02-21T03:47:25;9.10;99.90
65692;DHT22;52411;52.716;6.696;2024-02-21T03:49:50;9.10;99.90
65692;DHT22;52411;52.716;6.696;2024-02-21T03:52:16;9.10;99.90
65692;DHT22;52411;52.716;6.696;2024-02-21T03:54:42;9.20;99.90
65692;DHT22;52411;52.716;6.696;2024-02-21T03:57:08;9.20;99.90
65692;DHT22;52411;52.716;6.696;2024-02-21T03:59:33;9.20;99.90
65692;DHT22;52411;52.716;6.696;2024-02-21T04:01:59;9.20;99.90
65692;DHT22;52411;52.716;6.696;2024-02-21T04:04:25;9.20;99.90
65692;DHT22;52411;52.716;6.696;2024-02-21T04:06:51;9.20;99.90
65692;DHT22;52411;52.716;6.696;2024-02-21T04:09:17;9.30;99.90
65692;DHT22;52411;52.716;6.696;2024-02-21T04:11:43;9.30;99.90
65692;DHT22;52411;52.716;6.696;2024-02-21T04:14:09;9.20;99.90
65692;DHT22;52411;52.716;6.696;2024-02-21T04:16:36;9.20;99.90
65692;DHT22;52411;52.716;6.696;2024-02-21T04:19:02;9.30;99.90
65692;DHT22;52411;52.716;6.696;2024-02-21T04:21:27;9.30;99.90
65692;DHT22;52411;52.716;6.696;2024-02-21T04:23:53;9.30;99.90
65692;DHT22;52411;52.716;6.696;2024-02-21T04:26:19;9.30;99.90
65692;DHT22;52411;52.716;6.696;2024-02-21T04:28:47;9.30;99.90
65692;DHT22;52411;52.716;6.696;2024-02-21T04:31:13;9.30;99.90
65692;DHT22;52411;52.716;6.696;2024-02-21T04:33:38;9.30;99.90
65692;DHT22;52411;52.716;6.696;2024-02-21T04:36:04;9.30;99.90
65692;DHT22;52411;52.716;6.696;2024-02-21T04:38:30;9.40;99.90
65692;DHT22;52411;52.716;6.696;2024-02-21T04:40:56;9.40;99.90
65692;DHT22;52411;52.716;6.696;2024-02-21T04:43:24;9.40;99.90
65692;DHT22;52411;52.716;6.696;2024-02-21T04:45:50;9.40;99.90
65692;DHT22;52411;52.716;6.696;2024-02-21T04:48:16;9.40;99.90
65692;DHT22;52411;52.716;6.696;2024-02-21T04:50:42;9.40;99.90
65692;DHT22;52411;52.716;6.696;2024-02-21T04:53:07;9.30;99.90
65692;DHT22;52411;52.716;6.696;2024-02-21T04:55:33;9.40;99.90
65692;DHT22;52411;52.716;6.696;2024-02-21T04:57:59;9.40;99.90
65692;DHT22;52411;52.716;6.696;2024-02-21T05:00:25;9.40;99.90
65692;DHT22;52411;52.716;6.696;2024-02-21T05:02:51;9.40;99.90
65692;DHT22;52411;52.716;6.696;2024-02-21T05:05:17;9.40;99.90
65692;DHT22;52411;52.716;6.696;2024-02-21T05:07:42;9.30;99.90
65692;DHT22;52411;52.716;6.696;2024-02-21T05:10:08;9.40;99.90
65692;DHT22;52411;52.716;6.696;2024-02-21T05:12:35;9.40;99.90
65692;DHT22;52411;52.716;6.696;2024-02-21T05:15:00;9.40;99.90
65692;DHT22;52411;52.716;6.696;2024-02-21T05:17:26;9.40;99.90
65692;DHT22;52411;52.716;6.696;2024-02-21T05:19:52;9.40;99.90
65692;DHT22;52411;52.716;6.696;2024-02-21T05:22:17;9.40;99.90
65692;DHT22;52411;52.716;6.696;2024-02-21T05:24:43;9.40;99.90
65692;DHT22;52411;52.716;6.696;2024-02-21T05:27:08;9.40;99.90
65692;DHT22;52411;52.716;6.696;2024-02-21T05:29:34;9.40;99.90
65692;DHT22;52411;52.716;6.696;2024-02-21T05:32:00;9.40;99.90
65692;DHT22;52411;52.716;6.696;2024-02-21T05:34:25;9.40;99.90
65692;DHT22;52411;52.716;6.696;2024-02-21T05:36:52;9.40;99.90
65692;DHT22;52411;52.716;6.696;2024-02-21T05:39:18;9.40;99.90
65692;DHT22;52411;52.716;6.696;2024-02-21T05:41:43;9.40;99.90
65692;DHT22;52411;52.716;6.696;2024-02-21T05:44:09;9.40;99.90
65692;DHT22;52411;52.716;6.696;2024-02-21T05:46:35;9.40;99.90
65692;DHT22;52411;52.716;6.696;2024-02-21T05:49:00;9.40;99.90
65692;DHT22;52411;52.716;6.696;2024-02-21T05:51:26;9.40;99.90
65692;DHT22;52411;52.716;6.696;2024-02-21T05:53:52;9.40;99.90
65692;DHT22;52411;52.716;6.696;2024-02-21T05:56:17;9.30;99.90
65692;DHT22;52411;52.716;6.696;2024-02-21T05:58:43;9.30;99.90
65692;DHT22;52411;52.716;6.696;2024-02-21T06:01:09;9.30;99.90
65692;DHT22;52411;52.716;6.696;2024-02-21T06:03:35;9.30;99.90
65692;DHT22;52411;52.716;6.696;2024-02-21T06:06:02;9.30;99.90
65692;DHT22;52411;52.716;6.696;2024-02-21T06:08:28;9.30;99.90
65692;DHT22;52411;52.716;6.696;2024-02-21T06:10:54;9.30;99.90
65692;DHT22;52411;52.716;6.696;2024-02-21T06:13:23;9.30;99.90
65692;DHT22;52411;52.716;6.696;2024-02-21T06:15:49;9.30;99.90
65692;DHT22;52411;52.716;6.696;2024-02-21T06:18:18;9.30;99.90
65692;DHT22;52411;52.716;6.696;2024-02-21T06:20:44;9.30;99.90
65692;DHT22;52411;52.716;6.696;2024-02-21T06:23:11;9.30;99.90
65692;DHT22;52411;52.716;6.696;2024-02-21T06:25:38;9.30;99.90
65692;DHT22;52411;52.716;6.696;2024-02-21T06:28:04;9.30;99.90
65692;DHT22;52411;52.716;6.696;2024-02-21T06:30:30;9.30;99.90
65692;DHT22;52411;52.716;6.696;2024-02-21T06:32:55;9.30;99.90
65692;DHT22;52411;52.716;6.696;2024-02-21T06:35:25;9.30;99.90
65692;DHT22;52411;52.716;6.696;2024-02-21T06:37:51;9.30;99.90
65692;DHT22;52411;52.716;6.696;2024-02-21T06:40:23;9.30;99.90
65692;DHT22;52411;52.716;6.696;2024-02-21T06:42:50;9.30;99.90
65692;DHT22;52411;52.716;6.696;2024-02-21T06:45:16;9.30;99.90
65692;DHT22;52411;52.716;6.696;2024-02-21T06:47:42;9.30;99.90
65692;DHT22;52411;52.716;6.696;2024-02-21T06:50:08;9.30;99.90
65692;DHT22;52411;52.716;6.696;2024-02-21T06:52:34;9.30;99.90
65692;DHT22;52411;52.716;6.696;2024-02-21T06:55:00;9.30;99.90
65692;DHT22;52411;52.716;6.696;2024-02-21T06:57:25;9.30;99.90
65692;DHT22;52411;52.716;6.696;2024-02-21T06:59:51;9.30;99.90
65692;DHT22;52411;52.716;6.696;2024-02-21T07:02:17;9.30;99.90
65692;DHT22;52411;52.716;6.696;2024-02-21T07:04:42;9.30;99.90
65692;DHT22;52411;52.716;6.696;2024-02-21T07:07:09;9.30;99.90
65692;DHT22;52411;52.716;6.696;2024-02-21T07:09:34;9.30;99.90
65692;DHT22;52411;52.716;6.696;2024-02-21T07:12:00;9.30;99.90
65692;DHT22;52411;52.716;6.696;2024-02-21T07:14:27;9.30;99.90
65692;DHT22;52411;52.716;6.696;2024-02-21T07:16:53;9.30;99.90
65692;DHT22;52411;52.716;6.696;2024-02-21T07:19:19;9.30;99.90
65692;DHT22;52411;52.716;6.696;2024-02-21T07:21:45;9.30;99.90
65692;DHT22;52411;52.716;6.696;2024-02-21T07:24:10;9.20;99.90
65692;DHT22;52411;52.716;6.696;2024-02-21T07:26:36;9.20;99.90
65692;DHT22;52411;52.716;6.696;2024-02-21T07:29:02;9.20;99.90
65692;DHT22;52411;52.716;6.696;2024-02-21T07:31:27;9.20;99.90
65692;DHT22;52411;52.716;6.696;2024-02-21T07:33:53;9.10;99.90
65692;DHT22;52411;52.716;6.696;2024-02-21T07:36:29;9.20;99.90
65692;DHT22;52411;52.716;6.696;2024-02-21T07:38:58;9.20;99.90
65692;DHT22;52411;52.716;6.696;2024-02-21T07:41:24;9.10;99.90
65692;DHT22;52411;52.716;6.696;2024-02-21T07:43:50;9.20;99.90
65692;DHT22;52411;52.716;6.696;2024-02-21T07:46:17;9.20;99.90
65692;DHT22;52411;52.716;6.696;2024-02-21T07:48:44;9.20;99.90
65692;DHT22;52411;52.716;6.696;2024-02-21T07:51:10;9.20;99.90
65692;DHT22;52411;52.716;6.696;2024-02-21T07:53:35;9.20;99.90
65692;DHT22;52411;52.716;6.696;2024-02-21T07:56:01;9.20;99.90
65692;DHT22;52411;52.716;6.696;2024-02-21T07:58:26;9.20;99.90
65692;DHT22;52411;52.716;6.696;2024-02-21T08:00:52;9.20;99.90
65692;DHT22;52411;52.716;6.696;2024-02-21T08:03:18;9.20;99.90
65692;DHT22;52411;52.716;6.696;2024-02-21T08:05:44;9.20;99.90
65692;DHT22;52411;52.716;6.696;2024-02-21T08:08:09;9.20;99.90
65692;DHT22;52411;52.716;6.696;2024-02-21T08:10:35;9.20;99.90
65692;DHT22;52411;52.716;6.696;2024-02-21T08:13:01;9.20;99.90
65692;DHT22;52411;52.716;6.696;2024-02-21T08:15:26;9.20;99.90
65692;DHT22;52411;52.716;6.696;2024-02-21T08:17:55;9.20;99.90
65692;DHT22;52411;52.716;6.696;2024-02-21T08:20:25;9.10;99.90
65692;DHT22;52411;52.716;6.696;2024-02-21T08:22:50;9.20;99.90
65692;DHT22;52411;52.716;6.696;2024-02-21T08:25:16;9.20;99.90
65692;DHT22;52411;52.716;6.696;2024-02-21T08:27:41;9.20;99.90
65692;DHT22;52411;52.716;6.696;2024-02-21T08:30:07;9.20;99.90
65692;DHT22;52411;52.716;6.696;2024-02-21T08:32:33;9.30;99.90
65692;DHT22;52411;52.716;6.696;2024-02-21T08:35:01;9.30;99.90
65692;DHT22;52411;52.716;6.696;2024-02-21T08:37:30;9.30;99.90
65692;DHT22;52411;52.716;6.696;2024-02-21T08:39:55;9.40;99.90
65692;DHT22;52411;52.716;6.696;2024-02-21T08:42:21;9.40;99.90
65692;DHT22;52411;52.716;6.696;2024-02-21T08:44:46;9.40;99.90
65692;DHT22;52411;52.716;6.696;2024-02-21T08:47:12;9.40;99.90
65692;DHT22;52411;52.716;6.696;2024-02-21T08:49:38;9.40;99.90
65692;DHT22;52411;52.716;6.696;2024-02-21T08:52:03;9.40;99.90
65692;DHT22;52411;52.716;6.696;2024-02-21T08:54:29;9.40;99.90
65692;DHT22;52411;52.716;6.696;2024-02-21T08:56:55;9.40;99.90
65692;DHT22;52411;52.716;6.696;2024-02-21T08:59:22;9.50;99.90
65692;DHT22;52411;52.716;6.696;2024-02-21T09:01:47;9.50;99.90
65692;DHT22;52411;52.716;6.696;2024-02-21T09:04:13;9.50;99.90
65692;DHT22;52411;52.716;6.696;2024-02-21T09:06:38;9.50;99.90
65692;DHT22;52411;52.716;6.696;2024-02-21T09:09:08;9.50;99.90
65692;DHT22;52411;52.716;6.696;2024-02-21T09:11:35;9.60;99.90
65692;DHT22;52411;52.716;6.696;2024-02-21T09:14:01;9.60;99.90
65692;DHT22;52411;52.716;6.696;2024-02-21T09:16:32;9.70;99.90
65692;DHT22;52411;52.716;6.696;2024-02-21T09:18:58;9.70;99.90
65692;DHT22;52411;52.716;6.696;2024-02-21T09:21:29;9.70;99.90
65692;DHT22;52411;52.716;6.696;2024-02-21T09:23:55;9.80;99.90
65692;DHT22;52411;52.716;6.696;2024-02-21T09:26:21;9.80;99.90
65692;DHT22;52411;52.716;6.696;2024-02-21T09:28:47;9.80;99.90
65692;DHT22;52411;52.716;6.696;2024-02-21T09:31:12;9.80;99.90
65692;DHT22;52411;52.716;6.696;2024-02-21T09:33:38;9.80;99.90
65692;DHT22;52411;52.716;6.696;2024-02-21T09:36:04;9.90;99.90
65692;DHT22;52411;52.716;6.696;2024-02-21T09:38:31;9.90;99.90
65692;DHT22;52411;52.716;6.696;2024-02-21T09:41:16;9.90;99.90
65692;DHT22;52411;52.716;6.696;2024-02-21T09:43:43;9.90;99.90
65692;DHT22;52411;52.716;6.696;2024-02-21T09:46:18;9.90;99.90
65692;DHT22;52411;52.716;6.696;2024-02-21T09:51:34;9.90;99.90
65692;DHT22;52411;52.716;6.696;2024-02-21T09:54:02;9.90;99.90
65692;DHT22;52411;52.716;6.696;2024-02-21T09:56:28;9.90;99.90
65692;DHT22;52411;52.716;6.696;2024-02-21T09:58:54;9.90;99.90
65692;DHT22;52411;52.716;6.696;2024-02-21T10:01:20;9.90;99.90
65692;DHT22;52411;52.716;6.696;2024-02-21T10:03:46;9.90;99.90
65692;DHT22;52411;52.716;6.696;2024-02-21T10:06:11;10.00;99.90
65692;DHT22;52411;52.716;6.696;2024-02-21T10:08:37;9.90;99.90
65692;DHT22;52411;52.716;6.696;2024-02-21T10:11:02;9.90;99.90
65692;DHT22;52411;52.716;6.696;2024-02-21T10:13:29;10.00;99.90
65692;DHT22;52411;52.716;6.696;2024-02-21T10:16:06;10.00;99.90
65692;DHT22;52411;52.716;6.696;2024-02-21T10:18:35;10.00;99.90
65692;DHT22;52411;52.716;6.696;2024-02-21T10:21:02;10.00;99.90
65692;DHT22;52411;52.716;6.696;2024-02-21T10:23:27;10.00;99.90
65692;DHT22;52411;52.716;6.696;2024-02-21T10:25:53;10.00;99.90
65692;DHT22;52411;52.716;6.696;2024-02-21T10:28:19;10.00;99.90
65692;DHT22;52411;52.716;6.696;2024-02-21T10:30:52;10.00;99.90
65692;DHT22;52411;52.716;6.696;2024-02-21T10:33:18;9.90;99.90
65692;DHT22;52411;52.716;6.696;2024-02-21T10:35:47;10.00;99.90
65692;DHT22;52411;52.716;6.696;2024-02-21T10:38:15;10.00;99.90
65692;DHT22;52411;52.716;6.696;2024-02-21T10:40:40;10.20;99.90
65692;DHT22;52411;52.716;6.696;2024-02-21T10:43:12;10.20;99.90
65692;DHT22;52411;52.716;6.696;2024-02-21T10:45:39;10.30;99.90
65692;DHT22;52411;52.716;6.696;2024-02-21T10:48:12;10.30;99.90
65692;DHT22;52411;52.716;6.696;2024-02-21T10:50:57;10.30;99.90
65692;DHT22;52411;52.716;6.696;2024-02-21T10:56:30;10.40;99.90
65692;DHT22;52411;52.716;6.696;2024-02-21T10:59:01;10.40;99.90
65692;DHT22;52411;52.716;6.696;2024-02-21T11:01:27;10.40;99.90
65692;DHT22;52411;52.716;6.696;2024-02-21T11:03:55;10.30;99.90
65692;DHT22;52411;52.716;6.696;2024-02-21T11:06:22;10.30;99.90
65692;DHT22;52411;52.716;6.696;2024-02-21T11:09:09;10.30;99.90
65692;DHT22;52411;52.716;6.696;2024-02-21T11:11:39;10.10;99.90
65692;DHT22;52411;52.716;6.696;2024-02-21T11:16:39;10.20;99.90
65692;DHT22;52411;52.716;6.696;2024-02-21T11:19:21;10.10;99.90
65692;DHT22;52411;52.716;6.696;2024-02-21T11:21:48;10.10;99.90
65692;DHT22;52411;52.716;6.696;2024-02-21T11:24:28;10.20;99.90
65692;DHT22;52411;52.716;6.696;2024-02-21T11:26:56;10.20;99.90
65692;DHT22;52411;52.716;6.696;2024-02-21T11:29:24;10.30;99.90
65692;DHT22;52411;52.716;6.696;2024-02-21T11:31:51;10.40;99.90
65692;DHT22;52411;52.716;6.696;2024-02-21T11:34:18;10.50;99.90
65692;DHT22;52411;52.716;6.696;2024-02-21T11:36:52;10.50;99.90
65692;DHT22;52411;52.716;6.696;2024-02-21T11:39:23;10.50;99.90
65692;DHT22;52411;52.716;6.696;2024-02-21T11:42:05;10.50;99.90
65692;DHT22;52411;52.716;6.696;2024-02-21T11:44:37;10.50;99.90
65692;DHT22;52411;52.716;6.696;2024-02-21T11:47:04;10.50;99.90
65692;DHT22;52411;52.716;6.696;2024-02-21T11:49:30;10.50;99.90
65692;DHT22;52411;52.716;6.696;2024-02-21T11:52:03;10.50;99.90
65692;DHT22;52411;52.716;6.696;2024-02-21T11:54:32;10.60;99.90
65692;DHT22;52411;52.716;6.696;2024-02-21T11:56:59;10.60;99.90
65692;DHT22;52411;52.716;6.696;2024-02-21T11:59:25;10.60;99.90
65692;DHT22;52411;52.716;6.696;2024-02-21T12:01:52;10.50;99.90
65692;DHT22;52411;52.716;6.696;2024-02-21T12:04:18;10.50;99.90
65692;DHT22;52411;52.716;6.696;2024-02-21T12:06:45;10.60;99.90
65692;DHT22;52411;52.716;6.696;2024-02-21T12:09:14;10.60;99.90
65692;DHT22;52411;52.716;6.696;2024-02-21T12:11:41;10.60;99.90
65692;DHT22;52411;52.716;6.696;2024-02-21T12:14:07;10.60;99.90
65692;DHT22;52411;52.716;6.696;2024-02-21T12:16:35;10.60;99.90
65692;DHT22;52411;52.716;6.696;2024-02-21T12:19:03;10.70;99.90
65692;DHT22;52411;52.716;6.696;2024-02-21T12:21:33;10.80;99.90
65692;DHT22;52411;52.716;6.696;2024-02-21T12:24:14;10.70;99.90
65692;DHT22;52411;52.716;6.696;2024-02-21T12:26:40;10.80;99.90
65692;DHT22;52411;52.716;6.696;2024-02-21T12:29:06;10.80;99.90
65692;DHT22;52411;52.716;6.696;2024-02-21T12:31:37;10.80;99.90
65692;DHT22;52411;52.716;6.696;2024-02-21T12:34:03;10.90;99.90
65692;DHT22;52411;52.716;6.696;2024-02-21T12:36:30;10.90;99.90
65692;DHT22;52411;52.716;6.696;2024-02-21T12:38:56;10.80;99.90
65692;DHT22;52411;52.716;6.696;2024-02-21T12:41:22;10.70;99.90
65692;DHT22;52411;52.716;6.696;2024-02-21T12:43:47;10.60;99.90
65692;DHT22;52411;52.716;6.696;2024-02-21T12:46:13;10.50;99.90
65692;DHT22;52411;52.716;6.696;2024-02-21T12:48:39;10.40;99.90
65692;DHT22;52411;52.716;6.696;2024-02-21T12:51:05;10.40;99.90
65692;DHT22;52411;52.716;6.696;2024-02-21T12:53:31;10.30;99.90
65692;DHT22;52411;52.716;6.696;2024-02-21T12:55:56;10.20;99.90
65692;DHT22;52411;52.716;6.696;2024-02-21T13:00:58;10.20;99.90
65692;DHT22;52411;52.716;6.696;2024-02-21T13:09:34;10.40;99.90
65692;DHT22;52411;52.716;6.696;2024-02-21T13:11:59;10.50;99.90
65692;DHT22;52411;52.716;6.696;2024-02-21T13:14:25;10.50;99.90
65692;DHT22;52411;52.716;6.696;2024-02-21T13:16:50;10.50;99.90
65692;DHT22;52411;52.716;6.696;2024-02-21T13:19:16;10.50;99.90
65692;DHT22;52411;52.716;6.696;2024-02-21T13:21:42;10.60;99.90
65692;DHT22;52411;52.716;6.696;2024-02-21T13:24:08;10.50;99.90
65692;DHT22;52411;52.716;6.696;2024-02-21T13:29:09;10.70;99.90
65692;DHT22;52411;52.716;6.696;2024-02-21T13:40:09;11.10;99.90
65692;DHT22;52411;52.716;6.696;2024-02-21T13:42:36;11.10;99.90
65692;DHT22;52411;52.716;6.696;2024-02-21T13:51:19;11.20;99.90
65692;DHT22;52411;52.716;6.696;2024-02-21T13:53:45;11.00;99.90
65692;DHT22;52411;52.716;6.696;2024-02-21T14:01:21;10.80;99.90
65692;DHT22;52411;52.716;6.696;2024-02-21T14:03:47;10.80;99.90
65692;DHT22;52411;52.716;6.696;2024-02-21T14:11:24;10.60;99.90
65692;DHT22;52411;52.716;6.696;2024-02-21T14:13:49;10.50;99.90
65692;DHT22;52411;52.716;6.696;2024-02-21T14:16:15;10.50;99.90
65692;DHT22;52411;52.716;6.696;2024-02-21T14:18:41;10.50;99.90
65692;DHT22;52411;52.716;6.696;2024-02-21T14:21:08;10.50;99.90
65692;DHT22;52411;52.716;6.696;2024-02-21T14:29:01;10.50;99.90
65692;DHT22;52411;52.716;6.696;2024-02-21T14:37:05;10.50;99.90
65692;DHT22;52411;52.716;6.696;2024-02-21T14:39:31;10.50;99.90
65692;DHT22;52411;52.716;6.696;2024-02-21T14:41:59;10.40;99.90
65692;DHT22;52411;52.716;6.696;2024-02-21T14:44:25;10.50;99.90
65692;DHT22;52411;52.716;6.696;2024-02-21T14:46:51;10.40;99.90
65692;DHT22;52411;52.716;6.696;2024-02-21T14:49:17;10.40;99.90
65692;DHT22;52411;52.716;6.696;2024-02-21T14:51:44;10.40;99.90
65692;DHT22;52411;52.716;6.696;2024-02-21T14:54:10;10.50;99.90
65692;DHT22;52411;52.716;6.696;2024-02-21T14:59:11;10.50;99.90
65692;DHT22;52411;52.716;6.696;2024-02-21T15:01:37;10.50;99.90
65692;DHT22;52411;52.716;6.696;2024-02-21T15:04:06;10.60;99.90
65692;DHT22;52411;52.716;6.696;2024-02-21T15:06:33;10.70;99.90
65692;DHT22;52411;52.716;6.696;2024-02-21T15:14:12;10.60;99.90
65692;DHT22;52411;52.716;6.696;2024-02-21T15:16:38;10.60;99.90
65692;DHT22;52411;52.716;6.696;2024-02-21T15:19:04;10.60;99.90
65692;DHT22;52411;52.716;6.696;2024-02-21T15:21:30;10.50;99.90
65692;DHT22;52411;52.716;6.696;2024-02-21T15:23:56;10.50;99.90
65692;DHT22;52411;52.716;6.696;2024-02-21T15:26:22;10.40;99.90
65692;DHT22;52411;52.716;6.696;2024-02-21T15:28:48;10.40;99.90
65692;DHT22;52411;52.716;6.696;2024-02-21T15:31:24;10.40;99.90
65692;DHT22;52411;52.716;6.696;2024-02-21T15:33:53;10.40;99.90
65692;DHT22;52411;52.716;6.696;2024-02-21T15:36:18;10.40;99.90
65692;DHT22;52411;52.716;6.696;2024-02-21T15:38:47;10.50;99.90
65692;DHT22;52411;52.716;6.696;2024-02-21T15:41:13;10.40;99.90
65692;DHT22;52411;52.716;6.696;2024-02-21T15:43:41;10.30;99.90
65692;DHT22;52411;52.716;6.696;2024-02-21T15:46:13;10.40;99.90
65692;DHT22;52411;52.716;6.696;2024-02-21T15:48:39;10.40;99.90
65692;DHT22;52411;52.716;6.696;2024-02-21T15:51:05;10.40;99.90
65692;DHT22;52411;52.716;6.696;2024-02-21T15:53:31;10.50;99.90
65692;DHT22;52411;52.716;6.696;2024-02-21T15:55:57;10.50;99.90
65692;DHT22;52411;52.716;6.696;2024-02-21T15:58:23;10.50;99.90
65692;DHT22;52411;52.716;6.696;2024-02-21T16:00:50;10.50;99.90
65692;DHT22;52411;52.716;6.696;2024-02-21T16:03:18;10.40;99.90
65692;DHT22;52411;52.716;6.696;2024-02-21T16:05:43;10.40;99.90
65692;DHT22;52411;52.716;6.696;2024-02-21T16:08:09;10.40;99.90
65692;DHT22;52411;52.716;6.696;2024-02-21T16:10:35;10.40;99.90
65692;DHT22;52411;52.716;6.696;2024-02-21T16:13:01;10.40;99.90
65692;DHT22;52411;52.716;6.696;2024-02-21T16:15:26;10.40;99.90
65692;DHT22;52411;52.716;6.696;2024-02-21T16:17:52;10.30;99.90
65692;DHT22;52411;52.716;6.696;2024-02-21T16:20:17;10.30;99.90
65692;DHT22;52411;52.716;6.696;2024-02-21T16:22:43;10.20;99.90
65692;DHT22;52411;52.716;6.696;2024-02-21T16:25:10;10.30;99.90
65692;DHT22;52411;52.716;6.696;2024-02-21T16:27:36;10.20;99.90
65692;DHT22;52411;52.716;6.696;2024-02-21T16:30:02;10.10;99.90
65692;DHT22;52411;52.716;6.696;2024-02-21T16:32:28;10.10;99.90
65692;DHT22;52411;52.716;6.696;2024-02-21T16:34:54;10.00;99.90
65692;DHT22;52411;52.716;6.696;2024-02-21T16:37:20;10.00;99.90
65692;DHT22;52411;52.716;6.696;2024-02-21T16:39:46;9.90;99.90